createdAt,value
2023-01-06T00:01:25.557Z,1.63
2023-01-06T00:03:54.964Z,1.47
2023-01-06T00:06:27.677Z,1.73
2023-01-06T00:08:56.424Z,1.70
2023-01-06T00:11:25.097Z,1.67
2023-01-06T00:13:53.153Z,1.27
2023-01-06T00:16:22.317Z,1.67
2023-01-06T00:18:50.341Z,1.37
2023-01-06T00:21:18.374Z,1.47
2023-01-06T00:23:47.754Z,1.67
2023-01-06T00:26:15.847Z,1.20
2023-01-06T00:28:43.917Z,1.40
2023-01-06T00:31:14.019Z,1.70
2023-01-06T00:33:42.810Z,1.60
2023-01-06T00:36:12.680Z,1.43
2023-01-06T00:38:41.429Z,2.07
2023-01-06T00:41:26.406Z,1.43
2023-01-06T00:43:54.492Z,1.47
2023-01-06T00:46:22.681Z,1.53
2023-01-06T00:49:04.254Z,1.03
2023-01-06T00:51:33.444Z,1.87
2023-01-06T00:54:02.769Z,1.47
2023-01-06T00:56:32.227Z,1.77
2023-01-06T00:59:00.222Z,1.70
2023-01-06T01:01:28.438Z,1.27
2023-01-06T01:03:56.496Z,1.57
2023-01-06T01:06:24.755Z,1.67
2023-01-06T01:08:54.761Z,1.50
2023-01-06T01:11:41.032Z,1.73
2023-01-06T01:14:11.140Z,1.80
2023-01-06T01:16:39.729Z,1.73
2023-01-06T01:19:07.796Z,1.60
2023-01-06T01:21:35.918Z,1.67
2023-01-06T01:24:03.872Z,1.77
2023-01-06T01:26:31.901Z,1.80
2023-01-06T01:28:59.933Z,2.70
2023-01-06T01:31:29.691Z,2.43
2023-01-06T01:33:57.742Z,2.63
2023-01-06T01:36:25.730Z,2.90
2023-01-06T01:38:53.728Z,1.53
2023-01-06T01:41:24.401Z,1.87
2023-01-06T01:43:55.790Z,1.70
2023-01-06T01:46:28.118Z,1.60
2023-01-06T01:49:01.434Z,2.37
2023-01-06T01:51:34.278Z,1.80
2023-01-06T01:54:08.863Z,2.00
2023-01-06T01:56:42.848Z,2.00
2023-01-06T01:59:15.780Z,2.03
2023-01-06T02:01:43.879Z,1.90
2023-01-06T02:04:14.155Z,2.00
2023-01-06T02:06:42.745Z,1.70
2023-01-06T02:09:15.045Z,1.93
2023-01-06T02:11:44.206Z,1.93
2023-01-06T02:14:14.247Z,1.60
2023-01-06T02:16:54.779Z,1.00
2023-01-06T02:19:51.880Z,1.10
2023-01-06T02:22:38.624Z,1.70
2023-01-06T02:25:22.348Z,1.33
2023-01-06T02:28:01.843Z,1.50
2023-01-06T02:30:53.121Z,1.80
2023-01-06T02:33:28.875Z,1.50
2023-01-06T02:36:12.210Z,1.80
2023-01-06T02:38:57.686Z,1.93
2023-01-06T02:41:34.362Z,1.20
2023-01-06T02:44:09.053Z,1.43
2023-01-06T02:47:14.620Z,1.73
2023-01-06T02:49:50.196Z,1.30
2023-01-06T02:52:25.253Z,2.20
2023-01-06T02:55:00.020Z,1.90
2023-01-06T02:57:33.420Z,1.40
2023-01-06T03:00:08.192Z,1.67
2023-01-06T03:02:38.588Z,1.90
2023-01-06T03:05:11.154Z,1.53
2023-01-06T03:07:40.365Z,1.70
2023-01-06T03:10:09.803Z,1.10
2023-01-06T03:12:43.944Z,1.40
2023-01-06T03:15:12.653Z,1.70
2023-01-06T03:17:40.873Z,2.00
2023-01-06T03:20:11.645Z,1.40
2023-01-06T03:22:40.691Z,1.70
2023-01-06T03:25:10.394Z,1.13
2023-01-06T03:27:38.409Z,1.30
2023-01-06T03:30:10.076Z,2.40
2023-01-06T03:32:46.973Z,1.60
2023-01-06T03:35:32.777Z,1.23
2023-01-06T03:38:09.788Z,1.50
2023-01-06T03:40:42.320Z,1.57
2023-01-06T03:43:19.659Z,1.50
2023-01-06T03:45:59.959Z,1.27
2023-01-06T03:48:40.600Z,2.33
2023-01-06T03:51:18.192Z,1.40
2023-01-06T03:53:52.019Z,1.80
2023-01-06T03:56:24.399Z,1.90
2023-01-06T03:58:55.602Z,1.30
2023-01-06T04:01:26.516Z,1.87
2023-01-06T04:03:55.520Z,1.50
2023-01-06T04:06:24.950Z,2.10
2023-01-06T04:08:52.953Z,1.60
2023-01-06T04:11:38.736Z,2.00
2023-01-06T04:14:06.732Z,2.00
2023-01-06T04:16:34.886Z,2.20
2023-01-06T04:19:03.013Z,1.43
2023-01-06T04:21:32.418Z,1.60
2023-01-06T04:24:00.461Z,1.77
2023-01-06T04:26:28.505Z,1.60
2023-01-06T04:28:56.468Z,1.73
2023-01-06T04:31:24.460Z,1.90
2023-01-06T04:33:52.486Z,1.73
2023-01-06T04:36:20.997Z,1.60
2023-01-06T04:38:50.414Z,1.70
2023-01-06T04:41:18.412Z,2.00
2023-01-06T04:43:46.466Z,1.30
2023-01-06T04:46:14.501Z,2.60
2023-01-06T04:48:42.546Z,1.40
2023-01-06T04:51:11.666Z,0.90
2023-01-06T04:53:41.264Z,2.00
2023-01-06T04:56:12.634Z,1.50
2023-01-06T04:58:40.697Z,1.63
2023-01-06T05:01:11.764Z,2.00
2023-01-06T05:03:40.583Z,2.10
2023-01-06T05:06:10.318Z,1.50
2023-01-06T05:08:39.010Z,1.87
2023-01-06T05:11:08.614Z,2.33
2023-01-06T05:13:38.577Z,1.80
2023-01-06T05:16:08.125Z,1.60
2023-01-06T05:18:36.703Z,1.37
2023-01-06T05:21:05.025Z,2.03
2023-01-06T05:23:33.505Z,2.17
2023-01-06T05:26:01.790Z,1.60
2023-01-06T05:28:30.443Z,1.60
2023-01-06T05:31:02.392Z,1.70
2023-01-06T05:33:30.989Z,1.30
2023-01-06T05:35:59.520Z,1.93
2023-01-06T05:38:27.816Z,2.00
2023-01-06T05:40:56.843Z,1.77
2023-01-06T05:43:25.184Z,1.53
2023-01-06T05:45:53.535Z,1.67
2023-01-06T05:48:25.640Z,1.63
2023-01-06T05:50:53.996Z,1.80
2023-01-06T05:53:22.298Z,1.13
2023-01-06T05:55:50.582Z,1.27
2023-01-06T05:58:18.960Z,1.60
2023-01-06T06:00:47.276Z,1.40
2023-01-06T06:03:15.663Z,1.50
2023-01-06T06:05:45.328Z,1.50
2023-01-06T06:08:13.654Z,2.83
2023-01-06T06:10:41.962Z,2.10
2023-01-06T06:13:10.512Z,1.87
2023-01-06T06:15:38.882Z,1.57
2023-01-06T06:18:07.237Z,1.60
2023-01-06T06:20:35.571Z,1.50
2023-01-06T06:23:05.316Z,1.83
2023-01-06T06:25:33.892Z,1.57
2023-01-06T06:28:02.163Z,1.77
2023-01-06T06:30:30.489Z,1.57
2023-01-06T06:32:58.797Z,1.83
2023-01-06T06:35:27.175Z,2.40
2023-01-06T06:37:55.649Z,1.90
2023-01-06T06:40:25.352Z,1.47
2023-01-06T06:42:53.952Z,1.27
2023-01-06T06:45:22.286Z,1.57
2023-01-06T06:47:50.593Z,0.93
2023-01-06T06:50:19.041Z,1.30
2023-01-06T06:52:47.341Z,1.80
2023-01-06T06:55:15.766Z,1.80
2023-01-06T06:57:45.419Z,2.90
2023-01-06T07:00:14.184Z,1.60
2023-01-06T07:02:42.577Z,1.77
2023-01-06T07:05:11.081Z,1.80
2023-01-06T07:07:39.409Z,1.20
2023-01-06T07:10:08.315Z,1.37
2023-01-06T07:12:36.623Z,1.50
2023-01-06T07:15:06.657Z,1.90
2023-01-06T07:17:35.037Z,1.87
2023-01-06T07:20:03.313Z,1.77
2023-01-06T07:22:31.595Z,1.63
2023-01-06T07:24:59.969Z,1.77
2023-01-06T07:27:28.276Z,1.60
2023-01-06T07:29:56.601Z,1.50
2023-01-06T07:32:26.269Z,1.00
2023-01-06T07:34:54.616Z,2.60
2023-01-06T07:37:22.969Z,1.50
2023-01-06T07:39:51.311Z,1.53
2023-01-06T07:42:19.842Z,2.07
2023-01-06T07:44:48.132Z,1.70
2023-01-06T07:47:16.635Z,1.80
2023-01-06T07:49:46.375Z,2.03
2023-01-06T07:52:14.723Z,1.13
2023-01-06T07:54:43.231Z,1.53
2023-01-06T07:57:11.531Z,1.40
2023-01-06T07:59:39.858Z,1.97
2023-01-06T08:02:08.295Z,1.47
2023-01-06T08:04:36.700Z,1.67
2023-01-06T08:07:06.372Z,1.67
2023-01-06T08:09:34.675Z,1.90
2023-01-06T08:12:02.980Z,2.07
2023-01-06T08:14:31.244Z,1.67
2023-01-06T08:16:59.545Z,1.80
2023-01-06T08:19:27.809Z,1.40
2023-01-06T08:21:56.131Z,1.33
2023-01-06T08:24:25.831Z,1.80
2023-01-06T08:26:54.213Z,1.20
2023-01-06T08:29:22.510Z,1.50
2023-01-06T08:31:54.767Z,1.40
2023-01-06T08:34:25.195Z,1.43
2023-01-06T08:36:53.720Z,1.60
2023-01-06T08:39:22.036Z,1.63
2023-01-06T08:41:52.114Z,1.40
2023-01-06T08:44:20.501Z,1.40
2023-01-06T08:46:48.808Z,1.07
2023-01-06T08:49:17.137Z,1.10
2023-01-06T08:51:45.476Z,2.07
2023-01-06T08:54:14.510Z,1.10
2023-01-06T08:56:44.690Z,2.40
2023-01-06T08:59:17.004Z,1.47
2023-01-06T09:01:46.069Z,1.17
2023-01-06T09:04:14.399Z,1.60
2023-01-06T09:06:44.535Z,1.73
2023-01-06T09:09:13.169Z,0.90
2023-01-06T09:11:42.254Z,1.00
2023-01-06T09:14:10.897Z,1.10
2023-01-06T09:16:40.626Z,1.50
2023-01-06T09:19:10.360Z,1.13
2023-01-06T09:21:38.769Z,1.03
2023-01-06T09:24:07.310Z,1.30
2023-01-06T09:26:35.609Z,1.10
2023-01-06T09:29:03.887Z,1.10
2023-01-06T09:31:32.281Z,0.90
2023-01-06T09:34:01.963Z,1.63
2023-01-06T09:36:30.289Z,1.07
2023-01-06T09:38:58.671Z,0.80
2023-01-06T09:41:41.876Z,1.10
2023-01-06T09:44:12.663Z,1.60
2023-01-06T09:46:42.279Z,1.30
2023-01-06T09:49:16.637Z,0.77
2023-01-06T09:51:45.695Z,1.00
2023-01-06T09:54:17.170Z,1.30
2023-01-06T09:56:46.957Z,1.30
2023-01-06T09:59:19.088Z,1.20
2023-01-06T10:01:49.559Z,1.40
2023-01-06T10:04:21.747Z,1.33
2023-01-06T10:06:56.325Z,1.03
2023-01-06T10:09:29.264Z,1.47
2023-01-06T10:12:02.427Z,1.80
2023-01-06T10:14:38.620Z,1.80
2023-01-06T10:17:22.331Z,1.40
2023-01-06T10:19:59.657Z,1.93
2023-01-06T10:22:32.949Z,1.00
2023-01-06T10:25:03.897Z,1.10
2023-01-06T10:27:37.131Z,1.80
2023-01-06T10:30:07.487Z,1.33
2023-01-06T10:32:36.473Z,1.07
2023-01-06T10:35:13.082Z,0.70
2023-01-06T10:37:42.814Z,0.80
2023-01-06T10:40:17.637Z,0.90
2023-01-06T10:42:56.532Z,1.00
2023-01-06T10:45:25.468Z,0.90
2023-01-06T10:47:54.267Z,0.90
2023-01-06T10:50:24.592Z,0.93
2023-01-06T10:52:52.856Z,0.70
2023-01-06T10:55:28.476Z,0.60
2023-01-06T10:57:58.841Z,0.50
2023-01-06T11:00:27.351Z,0.70
2023-01-06T11:03:04.760Z,0.90
2023-01-06T11:05:43.834Z,0.40
2023-01-06T11:08:14.449Z,0.60
2023-01-06T11:10:46.018Z,0.70
2023-01-06T11:13:24.004Z,0.60
2023-01-06T11:15:52.666Z,0.50
2023-01-06T11:18:22.615Z,0.80
2023-01-06T11:21:06.806Z,0.90
2023-01-06T11:23:35.499Z,0.70
2023-01-06T11:26:05.480Z,0.63
2023-01-06T11:28:33.788Z,0.70
2023-01-06T11:31:03.609Z,0.93
2023-01-06T11:33:33.187Z,0.60
2023-01-06T11:36:07.874Z,0.80
2023-01-06T11:38:42.138Z,0.60
2023-01-06T11:41:11.518Z,0.80
2023-01-06T11:43:40.211Z,0.50
2023-01-06T11:46:09.708Z,1.00
2023-01-06T11:48:39.506Z,0.80
2023-01-06T11:51:09.135Z,0.80
2023-01-06T11:53:39.187Z,0.90
2023-01-06T11:56:08.823Z,0.90
2023-01-06T11:58:48.481Z,0.70
2023-01-06T12:01:19.113Z,0.73
2023-01-06T12:03:47.849Z,0.93
2023-01-06T12:06:20.409Z,0.60
2023-01-06T12:08:53.224Z,0.90
2023-01-06T12:11:25.399Z,0.80
2023-01-06T12:14:08.861Z,0.70
2023-01-06T12:16:44.080Z,0.80
2023-01-06T12:19:19.010Z,0.97
2023-01-06T12:21:47.359Z,0.70
2023-01-06T12:24:18.128Z,0.60
2023-01-06T12:26:46.693Z,0.73
2023-01-06T12:29:17.896Z,0.90
2023-01-06T12:31:49.783Z,0.73
2023-01-06T12:34:21.440Z,1.03
2023-01-06T12:36:52.188Z,0.60
2023-01-06T12:39:24.801Z,0.97
2023-01-06T12:41:55.101Z,0.80
2023-01-06T12:44:34.272Z,1.10
2023-01-06T12:47:06.304Z,0.60
2023-01-06T12:49:37.257Z,0.70
2023-01-06T12:52:08.656Z,0.77
2023-01-06T12:54:39.056Z,0.60
2023-01-06T12:57:12.403Z,0.77
2023-01-06T12:59:46.864Z,0.60
2023-01-06T13:02:21.334Z,0.70
2023-01-06T13:04:55.554Z,0.70
2023-01-06T13:07:30.133Z,0.63
2023-01-06T13:10:07.160Z,0.63
2023-01-06T13:12:49.973Z,0.60
2023-01-06T13:15:21.374Z,0.80
2023-01-06T13:17:53.736Z,0.93
2023-01-06T13:20:25.630Z,0.70
2023-01-06T13:22:58.292Z,1.00
2023-01-06T13:25:35.682Z,0.80
2023-01-06T13:28:07.812Z,0.77
2023-01-06T13:30:54.124Z,0.77
2023-01-06T13:33:30.858Z,0.50
2023-01-06T13:36:19.261Z,0.77
2023-01-06T13:38:57.460Z,0.70
2023-01-06T13:41:28.547Z,1.00
2023-01-06T13:43:58.220Z,0.80
2023-01-06T13:46:27.881Z,0.73
2023-01-06T13:48:57.536Z,0.70
2023-01-06T13:51:28.376Z,1.00
2023-01-06T13:53:56.702Z,1.07
2023-01-06T13:56:30.500Z,0.77
2023-01-06T13:59:17.607Z,0.90
2023-01-06T14:01:45.993Z,0.80
2023-01-06T14:04:33.107Z,0.70
2023-01-06T14:07:01.980Z,0.70
2023-01-06T14:09:30.330Z,1.50
2023-01-06T14:12:09.497Z,0.70
2023-01-06T14:14:38.600Z,0.60
2023-01-06T14:17:07.056Z,0.70
2023-01-06T14:19:36.912Z,0.60
2023-01-06T14:22:15.816Z,0.80
2023-01-06T14:24:45.262Z,0.53
2023-01-06T14:27:14.890Z,0.70
2023-01-06T14:30:04.681Z,0.80
2023-01-06T14:32:56.830Z,0.97
2023-01-06T14:35:29.880Z,0.70
2023-01-06T14:38:00.432Z,0.97
2023-01-06T14:40:30.491Z,1.03
2023-01-06T14:43:00.855Z,1.00
2023-01-06T14:45:30.118Z,1.03
2023-01-06T14:48:01.550Z,0.90
2023-01-06T14:50:45.607Z,0.60
2023-01-06T14:53:20.087Z,1.00
2023-01-06T14:55:50.474Z,0.60
2023-01-06T14:58:36.955Z,0.60
2023-01-06T15:01:07.768Z,0.90
2023-01-06T15:03:36.584Z,0.80
2023-01-06T15:06:11.843Z,0.90
2023-01-06T15:08:40.185Z,0.80
2023-01-06T15:11:20.287Z,0.80
2023-01-06T15:13:48.646Z,0.90
2023-01-06T15:16:21.743Z,0.90
2023-01-06T15:18:53.243Z,0.60
2023-01-06T15:21:22.190Z,1.20
2023-01-06T15:23:51.864Z,1.17
2023-01-06T15:26:21.262Z,0.60
2023-01-06T15:29:02.808Z,0.73
2023-01-06T15:31:34.489Z,0.70
2023-01-06T15:34:04.836Z,1.00
2023-01-06T15:36:34.212Z,1.00
2023-01-06T15:39:03.986Z,1.00
2023-01-06T15:41:36.902Z,0.80
2023-01-06T15:44:22.075Z,0.80
2023-01-06T15:46:52.846Z,1.77
2023-01-06T15:49:26.671Z,1.33
2023-01-06T15:51:56.418Z,1.10
2023-01-06T15:54:25.282Z,1.50
2023-01-06T15:56:53.658Z,1.17
2023-01-06T15:59:22.435Z,1.10
2023-01-06T16:01:54.811Z,0.70
2023-01-06T16:04:23.873Z,1.33
2023-01-06T16:06:52.248Z,0.80
2023-01-06T16:09:26.884Z,1.27
2023-01-06T16:11:59.238Z,1.23
2023-01-06T16:14:29.167Z,0.77
2023-01-06T16:17:04.659Z,0.97
2023-01-06T16:19:33.037Z,1.00
2023-01-06T16:22:02.658Z,2.30
2023-01-06T16:24:31.447Z,2.47
2023-01-06T16:27:02.091Z,6.70
2023-01-06T16:29:33.198Z,3.10
2023-01-06T16:32:19.606Z,1.93
2023-01-06T16:34:52.198Z,1.00
2023-01-06T16:37:20.467Z,0.77
2023-01-06T16:39:49.001Z,1.50
2023-01-06T16:42:42.750Z,9.27
2023-01-06T16:45:14.481Z,7.63
2023-01-06T16:47:42.759Z,17.10
2023-01-06T16:50:20.431Z,1.13
2023-01-06T16:52:50.359Z,0.93
2023-01-06T16:55:19.959Z,0.97
2023-01-06T16:57:50.055Z,0.90
2023-01-06T17:00:19.407Z,1.50
2023-01-06T17:02:48.925Z,0.90
2023-01-06T17:05:29.708Z,1.10
2023-01-06T17:07:59.028Z,1.00
2023-01-06T17:10:27.675Z,0.80
2023-01-06T17:13:15.813Z,6.40
2023-01-06T17:15:44.309Z,9.47
2023-01-06T17:18:23.407Z,11.03
2023-01-06T17:20:54.311Z,8.10
2023-01-06T17:23:22.597Z,6.70
2023-01-06T17:25:51.077Z,15.60
2023-01-06T17:28:20.928Z,12.27
2023-01-06T17:30:49.844Z,17.60
2023-01-06T17:33:19.764Z,14.43
2023-01-06T17:35:49.897Z,3.13
2023-01-06T17:38:21.219Z,1.37
2023-01-06T17:40:49.989Z,1.07
2023-01-06T17:43:24.555Z,1.23
2023-01-06T17:45:52.953Z,1.20
2023-01-06T17:48:21.314Z,0.70
2023-01-06T17:50:52.174Z,0.93
2023-01-06T17:53:41.895Z,1.10
2023-01-06T17:56:11.111Z,0.70
2023-01-06T17:58:40.137Z,0.90
2023-01-06T18:01:09.561Z,0.70
2023-01-06T18:03:39.364Z,0.60
2023-01-06T18:06:16.895Z,1.23
2023-01-06T18:08:46.991Z,0.63
2023-01-06T18:11:31.974Z,1.40
2023-01-06T18:14:03.685Z,1.97
2023-01-06T18:16:33.097Z,3.90
2023-01-06T18:19:07.122Z,3.80
2023-01-06T18:21:36.823Z,2.80
2023-01-06T18:24:16.703Z,1.50
2023-01-06T18:26:48.836Z,1.60
2023-01-06T18:29:18.379Z,2.63
2023-01-06T18:31:47.826Z,2.40
2023-01-06T18:34:20.441Z,1.23
2023-01-06T18:36:49.748Z,1.53
2023-01-06T18:39:24.585Z,2.10
2023-01-06T18:41:58.628Z,1.20
2023-01-06T18:44:27.067Z,1.90
2023-01-06T18:46:55.333Z,1.80
2023-01-06T18:49:24.567Z,1.63
2023-01-06T18:51:52.984Z,1.83
2023-01-06T18:54:24.141Z,2.23
2023-01-06T18:56:53.179Z,2.17
2023-01-06T18:59:27.355Z,1.60
2023-01-06T19:01:55.719Z,1.60
2023-01-06T19:04:28.811Z,2.10
2023-01-06T19:06:58.361Z,2.37
2023-01-06T19:09:34.720Z,1.30
2023-01-06T19:12:17.297Z,1.60
2023-01-06T19:14:46.308Z,1.83
2023-01-06T19:17:27.050Z,1.87
2023-01-06T19:19:56.433Z,2.20
2023-01-06T19:22:25.889Z,1.10
2023-01-06T19:24:58.955Z,1.53
2023-01-06T19:27:32.620Z,2.07
2023-01-06T19:30:15.441Z,1.67
2023-01-06T19:32:43.822Z,2.23
2023-01-06T19:35:15.241Z,1.97
2023-01-06T19:37:43.589Z,2.27
2023-01-06T19:40:22.901Z,2.00
2023-01-06T19:42:51.261Z,3.80
2023-01-06T19:45:28.946Z,2.67
2023-01-06T19:47:57.524Z,1.73
2023-01-06T19:50:26.477Z,1.73
2023-01-06T19:52:57.639Z,1.90
2023-01-06T19:55:28.674Z,1.90
2023-01-06T19:57:57.598Z,1.63
2023-01-06T20:00:27.629Z,2.47
2023-01-06T20:02:58.120Z,2.63
2023-01-06T20:05:27.060Z,1.97
2023-01-06T20:07:55.572Z,1.33
2023-01-06T20:10:23.875Z,1.43
2023-01-06T20:12:53.600Z,1.53
2023-01-06T20:15:21.883Z,2.60
2023-01-06T20:17:50.254Z,1.60
2023-01-06T20:20:18.650Z,1.50
2023-01-06T20:22:46.973Z,1.20
2023-01-06T20:25:15.350Z,1.50
2023-01-06T20:27:43.684Z,1.87
2023-01-06T20:30:13.630Z,1.70
2023-01-06T20:32:42.014Z,1.10
2023-01-06T20:35:11.211Z,1.43
2023-01-06T20:37:40.099Z,1.23
2023-01-06T20:40:09.174Z,1.30
2023-01-06T20:42:37.509Z,1.23
2023-01-06T20:45:06.320Z,1.37
2023-01-06T20:47:36.023Z,1.60
2023-01-06T20:50:06.337Z,1.80
2023-01-06T20:52:34.882Z,1.53
2023-01-06T20:55:03.193Z,1.30
2023-01-06T20:57:31.467Z,2.17
2023-01-06T20:59:59.788Z,2.10
2023-01-06T21:02:28.214Z,1.67
2023-01-06T21:04:57.929Z,2.17
2023-01-06T21:07:26.295Z,2.10
2023-01-06T21:09:54.607Z,1.20
2023-01-06T21:12:22.985Z,1.17
2023-01-06T21:14:51.330Z,1.27
2023-01-06T21:17:19.643Z,1.27
2023-01-06T21:19:48.021Z,1.50
2023-01-06T21:22:17.670Z,1.30
2023-01-06T21:24:46.022Z,1.97
2023-01-06T21:27:14.373Z,1.27
2023-01-06T21:29:42.962Z,1.63
2023-01-06T21:32:11.565Z,1.37
2023-01-06T21:34:40.111Z,1.40
2023-01-06T21:37:08.505Z,2.07
2023-01-06T21:39:38.206Z,1.80
2023-01-06T21:42:24.523Z,1.80
2023-01-06T21:44:52.837Z,1.00
2023-01-06T21:47:21.138Z,1.53
2023-01-06T21:49:49.537Z,1.50
2023-01-06T21:52:18.223Z,1.10
2023-01-06T21:54:48.008Z,1.43
2023-01-06T21:57:16.307Z,1.47
2023-01-06T21:59:45.959Z,2.40
2023-01-06T22:02:16.523Z,2.63
2023-01-06T22:04:44.950Z,2.30
2023-01-06T22:07:14.554Z,1.30
2023-01-06T22:09:45.639Z,1.27
2023-01-06T22:12:16.103Z,1.43
2023-01-06T22:14:44.587Z,2.83
2023-01-06T22:17:13.221Z,6.80
2023-01-06T22:19:42.080Z,5.30
2023-01-06T22:22:10.509Z,5.77
2023-01-06T22:24:38.923Z,4.80
2023-01-06T22:27:07.228Z,2.07
2023-01-06T22:29:36.908Z,4.03
2023-01-06T22:32:05.889Z,1.10
2023-01-06T22:34:34.726Z,2.00
2023-01-06T22:37:03.011Z,2.70
2023-01-06T22:39:31.326Z,3.20
2023-01-06T22:42:00.256Z,6.10
2023-01-06T22:44:28.601Z,5.03
2023-01-06T22:46:58.407Z,9.30
2023-01-06T22:49:26.660Z,21.20
2023-01-06T22:51:55.025Z,3.27
2023-01-06T22:54:23.491Z,1.63
2023-01-06T22:56:51.813Z,1.90
2023-01-06T22:59:20.130Z,3.60
2023-01-06T23:01:48.515Z,1.40
2023-01-06T23:04:18.338Z,1.00
2023-01-06T23:06:46.649Z,1.63
2023-01-06T23:09:15.037Z,1.70
2023-01-06T23:11:45.815Z,2.07
2023-01-06T23:14:14.385Z,3.27
2023-01-06T23:16:45.137Z,3.50
2023-01-06T23:19:16.725Z,1.90
2023-01-06T23:21:46.666Z,1.20
2023-01-06T23:24:15.024Z,1.60
2023-01-06T23:26:44.127Z,1.13
2023-01-06T23:29:12.992Z,1.40
2023-01-06T23:31:42.798Z,1.20
2023-01-06T23:34:11.800Z,1.03
2023-01-06T23:36:40.291Z,1.20
2023-01-06T23:39:13.399Z,1.30
2023-01-06T23:41:41.739Z,1.77
2023-01-06T23:44:11.361Z,1.60
2023-01-06T23:46:40.847Z,1.50
2023-01-06T23:49:09.645Z,2.50
2023-01-06T23:51:37.973Z,1.33
2023-01-06T23:54:06.975Z,1.43
2023-01-06T23:56:37.385Z,1.37
2023-01-06T23:59:06.908Z,1.37
